sensor_id;sensor_type;location;lat;lon;timestamp;temperature;humidity
2657;DHT22;1338;48.176;11.792;2023-08-08T00:01:01;11.70;99.90
2657;DHT22;1338;48.176;11.792;2023-08-08T00:03:31;11.60;99.90
2657;DHT22;1338;48.176;11.792;2023-08-08T00:05:59;11.50;99.90
2657;DHT22;1338;48.176;11.792;2023-08-08T00:08:27;11.50;99.90
2657;DHT22;1338;48.176;11.792;2023-08-08T00:10:55;11.40;99.90
2657;DHT22;1338;48.176;11.792;2023-08-08T00:13:23;11.50;99.90
2657;DHT22;1338;48.176;11.792;2023-08-08T00:15:51;11.50;99.90
2657;DHT22;1338;48.176;11.792;2023-08-08T00:18:20;11.40;99.90
2657;DHT22;1338;48.176;11.792;2023-08-08T00:20:49;11.40;99.90
2657;DHT22;1338;48.176;11.792;2023-08-08T00:23:17;11.40;99.90
2657;DHT22;1338;48.176;11.792;2023-08-08T00:25:45;11.40;99.90
2657;DHT22;1338;48.176;11.792;2023-08-08T00:28:16;11.40;99.90
2657;DHT22;1338;48.176;11.792;2023-08-08T00:30:45;11.40;99.90
2657;DHT22;1338;48.176;11.792;2023-08-08T00:33:13;11.30;99.90
2657;DHT22;1338;48.176;11.792;2023-08-08T00:35:41;11.30;99.90
2657;DHT22;1338;48.176;11.792;2023-08-08T00:38:11;11.20;99.90
2657;DHT22;1338;48.176;11.792;2023-08-08T00:40:40;11.20;99.90
2657;DHT22;1338;48.176;11.792;2023-08-08T00:43:08;11.20;99.90
2657;DHT22;1338;48.176;11.792;2023-08-08T00:45:37;11.20;99.90
2657;DHT22;1338;48.176;11.792;2023-08-08T00:48:06;11.20;99.90
2657;DHT22;1338;48.176;11.792;2023-08-08T00:50:35;11.20;99.90
2657;DHT22;1338;48.176;11.792;2023-08-08T00:53:04;11.20;99.90
2657;DHT22;1338;48.176;11.792;2023-08-08T00:55:34;11.30;99.90
2657;DHT22;1338;48.176;11.792;2023-08-08T00:58:02;11.20;99.90
2657;DHT22;1338;48.176;11.792;2023-08-08T01:00:31;11.30;99.90
2657;DHT22;1338;48.176;11.792;2023-08-08T01:03:00;11.30;99.90
2657;DHT22;1338;48.176;11.792;2023-08-08T01:05:32;11.40;99.90
2657;DHT22;1338;48.176;11.792;2023-08-08T01:08:04;11.30;99.90
2657;DHT22;1338;48.176;11.792;2023-08-08T01:10:37;11.20;99.90
2657;DHT22;1338;48.176;11.792;2023-08-08T01:13:14;11.20;99.90
2657;DHT22;1338;48.176;11.792;2023-08-08T01:15:45;11.10;99.90
2657;DHT22;1338;48.176;11.792;2023-08-08T01:18:14;11.10;99.90
2657;DHT22;1338;48.176;11.792;2023-08-08T01:20:43;11.10;99.90
2657;DHT22;1338;48.176;11.792;2023-08-08T01:23:17;11.00;99.90
2657;DHT22;1338;48.176;11.792;2023-08-08T01:25:48;11.00;1.00
2657;DHT22;1338;48.176;11.792;2023-08-08T01:28:20;11.00;1.00
2657;DHT22;1338;48.176;11.792;2023-08-08T01:30:49;11.00;1.00
2657;DHT22;1338;48.176;11.792;2023-08-08T01:33:17;10.90;1.00
2657;DHT22;1338;48.176;11.792;2023-08-08T01:35:50;10.90;1.00
2657;DHT22;1338;48.176;11.792;2023-08-08T01:38:25;10.90;1.00
2657;DHT22;1338;48.176;11.792;2023-08-08T01:40:56;10.80;1.00
2657;DHT22;1338;48.176;11.792;2023-08-08T01:43:25;10.80;1.00
2657;DHT22;1338;48.176;11.792;2023-08-08T01:45:54;10.70;1.00
2657;DHT22;1338;48.176;11.792;2023-08-08T01:48:23;10.70;1.00
2657;DHT22;1338;48.176;11.792;2023-08-08T01:50:51;10.60;1.00
2657;DHT22;1338;48.176;11.792;2023-08-08T01:53:19;10.60;1.00
2657;DHT22;1338;48.176;11.792;2023-08-08T01:55:48;10.60;1.00
2657;DHT22;1338;48.176;11.792;2023-08-08T01:58:17;10.60;1.00
2657;DHT22;1338;48.176;11.792;2023-08-08T02:00:46;10.60;1.00
2657;DHT22;1338;48.176;11.792;2023-08-08T02:03:14;10.60;1.00
2657;DHT22;1338;48.176;11.792;2023-08-08T02:05:42;10.50;1.00
2657;DHT22;1338;48.176;11.792;2023-08-08T02:08:11;10.50;1.00
2657;DHT22;1338;48.176;11.792;2023-08-08T02:10:39;10.40;1.00
2657;DHT22;1338;48.176;11.792;2023-08-08T02:13:07;10.30;1.00
2657;DHT22;1338;48.176;11.792;2023-08-08T02:15:37;10.20;1.00
2657;DHT22;1338;48.176;11.792;2023-08-08T02:18:06;10.10;1.00
2657;DHT22;1338;48.176;11.792;2023-08-08T02:20:35;10.10;1.00
2657;DHT22;1338;48.176;11.792;2023-08-08T02:23:04;10.00;1.00
2657;DHT22;1338;48.176;11.792;2023-08-08T02:25:32;10.00;1.00
2657;DHT22;1338;48.176;11.792;2023-08-08T02:28:00;9.90;1.00
2657;DHT22;1338;48.176;11.792;2023-08-08T02:30:29;9.90;1.00
2657;DHT22;1338;48.176;11.792;2023-08-08T02:32:58;9.80;1.00
2657;DHT22;1338;48.176;11.792;2023-08-08T02:35:26;9.80;1.00
2657;DHT22;1338;48.176;11.792;2023-08-08T02:37:54;9.80;1.00
2657;DHT22;1338;48.176;11.792;2023-08-08T02:40:23;9.70;1.00
2657;DHT22;1338;48.176;11.792;2023-08-08T02:42:51;9.70;1.00
2657;DHT22;1338;48.176;11.792;2023-08-08T02:45:19;9.60;1.00
2657;DHT22;1338;48.176;11.792;2023-08-08T02:47:49;9.60;1.00
2657;DHT22;1338;48.176;11.792;2023-08-08T02:50:19;9.60;1.00
2657;DHT22;1338;48.176;11.792;2023-08-08T02:52:48;9.50;1.00
2657;DHT22;1338;48.176;11.792;2023-08-08T02:55:18;9.40;1.00
2657;DHT22;1338;48.176;11.792;2023-08-08T02:57:49;9.40;1.00
2657;DHT22;1338;48.176;11.792;2023-08-08T03:00:17;9.30;1.00
2657;DHT22;1338;48.176;11.792;2023-08-08T03:02:49;9.30;1.00
2657;DHT22;1338;48.176;11.792;2023-08-08T03:05:17;9.20;1.00
2657;DHT22;1338;48.176;11.792;2023-08-08T03:07:47;9.20;1.00
2657;DHT22;1338;48.176;11.792;2023-08-08T03:10:16;9.20;1.00
2657;DHT22;1338;48.176;11.792;2023-08-08T03:12:44;9.10;1.00
2657;DHT22;1338;48.176;11.792;2023-08-08T03:15:13;9.20;1.00
2657;DHT22;1338;48.176;11.792;2023-08-08T03:17:42;9.20;1.00
2657;DHT22;1338;48.176;11.792;2023-08-08T03:20:11;9.10;1.00
2657;DHT22;1338;48.176;11.792;2023-08-08T03:22:39;9.10;1.00
2657;DHT22;1338;48.176;11.792;2023-08-08T03:25:09;9.10;1.00
2657;DHT22;1338;48.176;11.792;2023-08-08T03:27:37;9.10;1.00
2657;DHT22;1338;48.176;11.792;2023-08-08T03:30:08;9.10;1.00
2657;DHT22;1338;48.176;11.792;2023-08-08T03:32:40;9.10;1.00
2657;DHT22;1338;48.176;11.792;2023-08-08T03:35:09;9.20;1.00
2657;DHT22;1338;48.176;11.792;2023-08-08T03:37:39;9.20;1.00
2657;DHT22;1338;48.176;11.792;2023-08-08T03:40:10;9.30;1.00
2657;DHT22;1338;48.176;11.792;2023-08-08T03:42:39;9.30;1.00
2657;DHT22;1338;48.176;11.792;2023-08-08T03:45:09;9.30;1.00
2657;DHT22;1338;48.176;11.792;2023-08-08T03:47:39;9.40;1.00
2657;DHT22;1338;48.176;11.792;2023-08-08T03:50:08;9.40;1.00
2657;DHT22;1338;48.176;11.792;2023-08-08T03:52:37;9.40;1.00
2657;DHT22;1338;48.176;11.792;2023-08-08T03:55:11;9.40;1.00
2657;DHT22;1338;48.176;11.792;2023-08-08T03:57:40;9.40;1.00
2657;DHT22;1338;48.176;11.792;2023-08-08T04:00:09;9.50;1.00
2657;DHT22;1338;48.176;11.792;2023-08-08T04:02:41;9.40;1.00
2657;DHT22;1338;48.176;11.792;2023-08-08T04:05:09;9.40;1.00
2657;DHT22;1338;48.176;11.792;2023-08-08T04:07:39;9.50;1.00
2657;DHT22;1338;48.176;11.792;2023-08-08T04:10:08;9.40;1.00
2657;DHT22;1338;48.176;11.792;2023-08-08T04:12:37;9.50;1.00
2657;DHT22;1338;48.176;11.792;2023-08-08T04:15:06;9.60;1.00
2657;DHT22;1338;48.176;11.792;2023-08-08T04:17:35;9.60;1.00
2657;DHT22;1338;48.176;11.792;2023-08-08T04:20:05;9.70;1.00
2657;DHT22;1338;48.176;11.792;2023-08-08T04:22:34;9.70;1.00
2657;DHT22;1338;48.176;11.792;2023-08-08T04:25:04;9.70;1.00
2657;DHT22;1338;48.176;11.792;2023-08-08T04:27:32;9.70;1.00
2657;DHT22;1338;48.176;11.792;2023-08-08T04:30:03;9.80;1.00
2657;DHT22;1338;48.176;11.792;2023-08-08T04:32:31;9.80;1.00
2657;DHT22;1338;48.176;11.792;2023-08-08T04:34:59;9.90;1.00
2657;DHT22;1338;48.176;11.792;2023-08-08T04:37:27;9.90;1.00
2657;DHT22;1338;48.176;11.792;2023-08-08T04:39:55;10.00;1.00
2657;DHT22;1338;48.176;11.792;2023-08-08T04:42:23;10.00;1.00
2657;DHT22;1338;48.176;11.792;2023-08-08T04:44:52;10.20;1.00
2657;DHT22;1338;48.176;11.792;2023-08-08T04:47:21;10.20;1.00
2657;DHT22;1338;48.176;11.792;2023-08-08T04:49:49;10.20;1.00
2657;DHT22;1338;48.176;11.792;2023-08-08T04:52:18;10.30;1.00
2657;DHT22;1338;48.176;11.792;2023-08-08T04:54:46;10.30;1.00
2657;DHT22;1338;48.176;11.792;2023-08-08T04:57:14;10.40;1.00
2657;DHT22;1338;48.176;11.792;2023-08-08T04:59:42;10.40;1.00
2657;DHT22;1338;48.176;11.792;2023-08-08T05:02:10;10.40;1.00
2657;DHT22;1338;48.176;11.792;2023-08-08T05:04:40;10.50;1.00
2657;DHT22;1338;48.176;11.792;2023-08-08T05:07:08;10.60;1.00
2657;DHT22;1338;48.176;11.792;2023-08-08T05:09:36;10.70;1.00
2657;DHT22;1338;48.176;11.792;2023-08-08T05:12:05;10.70;1.00
2657;DHT22;1338;48.176;11.792;2023-08-08T05:14:33;10.80;1.00
2657;DHT22;1338;48.176;11.792;2023-08-08T05:17:02;10.80;1.00
2657;DHT22;1338;48.176;11.792;2023-08-08T05:19:30;10.90;1.00
2657;DHT22;1338;48.176;11.792;2023-08-08T05:22:00;10.90;1.00
2657;DHT22;1338;48.176;11.792;2023-08-08T05:24:28;11.00;1.00
2657;DHT22;1338;48.176;11.792;2023-08-08T05:26:56;11.10;1.00
2657;DHT22;1338;48.176;11.792;2023-08-08T05:29:25;11.10;1.00
2657;DHT22;1338;48.176;11.792;2023-08-08T05:31:53;11.20;1.00
2657;DHT22;1338;48.176;11.792;2023-08-08T05:34:23;11.20;1.00
2657;DHT22;1338;48.176;11.792;2023-08-08T05:36:51;11.30;1.00
2657;DHT22;1338;48.176;11.792;2023-08-08T05:39:41;11.40;1.00
2657;DHT22;1338;48.176;11.792;2023-08-08T05:42:09;11.40;1.00
2657;DHT22;1338;48.176;11.792;2023-08-08T05:44:37;11.50;1.00
2657;DHT22;1338;48.176;11.792;2023-08-08T05:47:06;11.60;1.00
2657;DHT22;1338;48.176;11.792;2023-08-08T05:49:34;11.70;1.00
2657;DHT22;1338;48.176;11.792;2023-08-08T05:52:03;11.70;1.00
2657;DHT22;1338;48.176;11.792;2023-08-08T05:54:31;11.70;1.00
2657;DHT22;1338;48.176;11.792;2023-08-08T05:57:02;11.80;1.00
2657;DHT22;1338;48.176;11.792;2023-08-08T05:59:30;11.90;1.00
2657;DHT22;1338;48.176;11.792;2023-08-08T06:01:58;12.10;1.00
2657;DHT22;1338;48.176;11.792;2023-08-08T06:04:27;12.20;99.90
2657;DHT22;1338;48.176;11.792;2023-08-08T06:06:56;12.30;1.00
2657;DHT22;1338;48.176;11.792;2023-08-08T06:09:25;12.30;99.90
2657;DHT22;1338;48.176;11.792;2023-08-08T06:11:53;12.30;99.90
2657;DHT22;1338;48.176;11.792;2023-08-08T06:14:22;12.30;99.90
2657;DHT22;1338;48.176;11.792;2023-08-08T06:16:50;12.30;99.90
2657;DHT22;1338;48.176;11.792;2023-08-08T06:19:19;12.50;99.90
2657;DHT22;1338;48.176;11.792;2023-08-08T06:21:47;12.80;99.90
2657;DHT22;1338;48.176;11.792;2023-08-08T06:24:16;12.80;99.90
2657;DHT22;1338;48.176;11.792;2023-08-08T06:26:44;12.90;99.90
2657;DHT22;1338;48.176;11.792;2023-08-08T06:29:12;13.10;99.90
2657;DHT22;1338;48.176;11.792;2023-08-08T06:31:42;13.20;99.90
2657;DHT22;1338;48.176;11.792;2023-08-08T06:34:11;13.50;99.90
2657;DHT22;1338;48.176;11.792;2023-08-08T06:36:39;13.70;99.90
2657;DHT22;1338;48.176;11.792;2023-08-08T06:39:07;13.90;99.90
2657;DHT22;1338;48.176;11.792;2023-08-08T06:41:35;13.90;99.90
2657;DHT22;1338;48.176;11.792;2023-08-08T06:44:06;14.10;99.90
2657;DHT22;1338;48.176;11.792;2023-08-08T06:46:35;14.20;52.40
2657;DHT22;1338;48.176;11.792;2023-08-08T06:49:04;14.40;26.80
2657;DHT22;1338;48.176;11.792;2023-08-08T06:51:34;14.50;1.00
2657;DHT22;1338;48.176;11.792;2023-08-08T06:54:02;14.60;1.00
2657;DHT22;1338;48.176;11.792;2023-08-08T06:56:30;14.70;1.00
2657;DHT22;1338;48.176;11.792;2023-08-08T06:58:58;14.60;1.00
2657;DHT22;1338;48.176;11.792;2023-08-08T07:01:26;14.80;1.00
2657;DHT22;1338;48.176;11.792;2023-08-08T07:03:55;14.90;1.00
2657;DHT22;1338;48.176;11.792;2023-08-08T07:06:25;14.80;1.00
2657;DHT22;1338;48.176;11.792;2023-08-08T07:08:53;14.90;1.00
2657;DHT22;1338;48.176;11.792;2023-08-08T07:11:22;14.80;1.00
2657;DHT22;1338;48.176;11.792;2023-08-08T07:13:51;14.90;1.00
2657;DHT22;1338;48.176;11.792;2023-08-08T07:16:19;15.10;1.00
2657;DHT22;1338;48.176;11.792;2023-08-08T07:18:48;15.00;1.00
2657;DHT22;1338;48.176;11.792;2023-08-08T07:21:19;15.10;1.00
2657;DHT22;1338;48.176;11.792;2023-08-08T07:23:50;15.10;1.00
2657;DHT22;1338;48.176;11.792;2023-08-08T07:26:18;15.10;1.00
2657;DHT22;1338;48.176;11.792;2023-08-08T07:28:46;15.10;1.00
2657;DHT22;1338;48.176;11.792;2023-08-08T07:31:14;15.40;1.00
2657;DHT22;1338;48.176;11.792;2023-08-08T07:33:43;15.60;1.00
2657;DHT22;1338;48.176;11.792;2023-08-08T07:36:11;15.60;1.00
2657;DHT22;1338;48.176;11.792;2023-08-08T07:38:39;15.50;1.00
2657;DHT22;1338;48.176;11.792;2023-08-08T07:41:09;15.70;1.00
2657;DHT22;1338;48.176;11.792;2023-08-08T07:43:37;15.50;1.00
2657;DHT22;1338;48.176;11.792;2023-08-08T07:46:05;15.80;1.00
2657;DHT22;1338;48.176;11.792;2023-08-08T07:48:33;15.80;1.00
2657;DHT22;1338;48.176;11.792;2023-08-08T07:51:02;15.60;1.00
2657;DHT22;1338;48.176;11.792;2023-08-08T07:53:30;15.60;1.00
2657;DHT22;1338;48.176;11.792;2023-08-08T07:55:58;15.70;1.00
2657;DHT22;1338;48.176;11.792;2023-08-08T07:58:27;15.90;1.00
2657;DHT22;1338;48.176;11.792;2023-08-08T08:00:56;15.90;1.00
2657;DHT22;1338;48.176;11.792;2023-08-08T08:03:28;16.10;1.00
2657;DHT22;1338;48.176;11.792;2023-08-08T08:05:57;16.30;1.00
2657;DHT22;1338;48.176;11.792;2023-08-08T08:08:25;16.40;1.00
2657;DHT22;1338;48.176;11.792;2023-08-08T08:10:53;16.40;1.00
2657;DHT22;1338;48.176;11.792;2023-08-08T08:13:22;16.50;1.00
2657;DHT22;1338;48.176;11.792;2023-08-08T08:15:51;16.40;1.00
2657;DHT22;1338;48.176;11.792;2023-08-08T08:18:19;16.50;1.00
2657;DHT22;1338;48.176;11.792;2023-08-08T08:20:48;16.60;1.00
2657;DHT22;1338;48.176;11.792;2023-08-08T08:23:17;16.50;1.00
2657;DHT22;1338;48.176;11.792;2023-08-08T08:25:45;16.70;1.00
2657;DHT22;1338;48.176;11.792;2023-08-08T08:28:15;16.90;1.00
2657;DHT22;1338;48.176;11.792;2023-08-08T08:30:43;17.00;1.00
2657;DHT22;1338;48.176;11.792;2023-08-08T08:33:13;17.00;1.00
2657;DHT22;1338;48.176;11.792;2023-08-08T08:35:41;17.20;1.00
2657;DHT22;1338;48.176;11.792;2023-08-08T08:38:09;17.50;1.00
2657;DHT22;1338;48.176;11.792;2023-08-08T08:40:40;17.30;1.00
2657;DHT22;1338;48.176;11.792;2023-08-08T08:43:09;17.00;1.00
2657;DHT22;1338;48.176;11.792;2023-08-08T08:45:38;17.40;1.00
2657;DHT22;1338;48.176;11.792;2023-08-08T08:48:09;17.60;1.00
2657;DHT22;1338;48.176;11.792;2023-08-08T08:50:40;17.40;1.00
2657;DHT22;1338;48.176;11.792;2023-08-08T08:53:10;17.10;1.00
2657;DHT22;1338;48.176;11.792;2023-08-08T08:55:39;17.60;1.00
2657;DHT22;1338;48.176;11.792;2023-08-08T08:58:08;17.50;1.00
2657;DHT22;1338;48.176;11.792;2023-08-08T09:00:37;17.40;1.00
2657;DHT22;1338;48.176;11.792;2023-08-08T09:03:05;17.50;1.00
2657;DHT22;1338;48.176;11.792;2023-08-08T09:05:34;17.40;1.00
2657;DHT22;1338;48.176;11.792;2023-08-08T09:08:04;17.60;1.00
2657;DHT22;1338;48.176;11.792;2023-08-08T09:10:32;17.80;1.00
2657;DHT22;1338;48.176;11.792;2023-08-08T09:13:01;17.80;1.00
2657;DHT22;1338;48.176;11.792;2023-08-08T09:15:31;17.70;1.00
2657;DHT22;1338;48.176;11.792;2023-08-08T09:17:59;17.80;1.00
2657;DHT22;1338;48.176;11.792;2023-08-08T09:20:27;18.10;1.00
2657;DHT22;1338;48.176;11.792;2023-08-08T09:22:56;18.20;1.00
2657;DHT22;1338;48.176;11.792;2023-08-08T09:25:26;18.30;1.00
2657;DHT22;1338;48.176;11.792;2023-08-08T09:27:55;18.20;1.00
2657;DHT22;1338;48.176;11.792;2023-08-08T09:30:23;18.00;1.00
2657;DHT22;1338;48.176;11.792;2023-08-08T09:32:53;18.00;1.00
2657;DHT22;1338;48.176;11.792;2023-08-08T09:35:23;18.10;1.00
2657;DHT22;1338;48.176;11.792;2023-08-08T09:37:53;18.50;1.00
2657;DHT22;1338;48.176;11.792;2023-08-08T09:40:22;18.80;1.00
2657;DHT22;1338;48.176;11.792;2023-08-08T09:42:52;18.80;1.00
2657;DHT22;1338;48.176;11.792;2023-08-08T09:45:20;18.70;1.00
2657;DHT22;1338;48.176;11.792;2023-08-08T09:47:50;18.90;1.00
2657;DHT22;1338;48.176;11.792;2023-08-08T09:50:19;19.00;1.00
2657;DHT22;1338;48.176;11.792;2023-08-08T09:52:48;18.60;1.00
2657;DHT22;1338;48.176;11.792;2023-08-08T09:55:17;18.80;1.00
2657;DHT22;1338;48.176;11.792;2023-08-08T09:57:47;18.60;1.00
2657;DHT22;1338;48.176;11.792;2023-08-08T10:00:18;18.80;1.00
2657;DHT22;1338;48.176;11.792;2023-08-08T10:02:48;18.90;1.00
2657;DHT22;1338;48.176;11.792;2023-08-08T10:05:16;18.90;1.00
2657;DHT22;1338;48.176;11.792;2023-08-08T10:07:45;19.00;1.00
2657;DHT22;1338;48.176;11.792;2023-08-08T10:10:14;18.80;1.00
2657;DHT22;1338;48.176;11.792;2023-08-08T10:12:47;18.60;1.00
2657;DHT22;1338;48.176;11.792;2023-08-08T10:15:17;19.30;1.00
2657;DHT22;1338;48.176;11.792;2023-08-08T10:17:45;19.50;1.00
2657;DHT22;1338;48.176;11.792;2023-08-08T10:20:14;19.40;1.00
2657;DHT22;1338;48.176;11.792;2023-08-08T10:22:48;19.30;1.00
2657;DHT22;1338;48.176;11.792;2023-08-08T10:25:18;19.30;1.00
2657;DHT22;1338;48.176;11.792;2023-08-08T10:27:47;19.70;1.00
2657;DHT22;1338;48.176;11.792;2023-08-08T10:30:15;19.20;1.00
2657;DHT22;1338;48.176;11.792;2023-08-08T10:32:46;19.30;1.00
2657;DHT22;1338;48.176;11.792;2023-08-08T10:35:19;19.30;1.00
2657;DHT22;1338;48.176;11.792;2023-08-08T10:37:54;18.90;1.00
2657;DHT22;1338;48.176;11.792;2023-08-08T10:40:22;19.50;1.00
2657;DHT22;1338;48.176;11.792;2023-08-08T10:42:52;19.90;1.00
2657;DHT22;1338;48.176;11.792;2023-08-08T10:45:20;19.80;1.00
2657;DHT22;1338;48.176;11.792;2023-08-08T10:48:07;19.70;1.00
2657;DHT22;1338;48.176;11.792;2023-08-08T10:50:39;19.50;1.00
2657;DHT22;1338;48.176;11.792;2023-08-08T10:53:08;19.80;1.00
2657;DHT22;1338;48.176;11.792;2023-08-08T10:55:38;19.70;1.00
2657;DHT22;1338;48.176;11.792;2023-08-08T10:58:08;19.80;1.00
2657;DHT22;1338;48.176;11.792;2023-08-08T11:00:38;19.60;1.00
2657;DHT22;1338;48.176;11.792;2023-08-08T11:03:09;19.20;1.00
2657;DHT22;1338;48.176;11.792;2023-08-08T11:05:38;19.60;1.00
2657;DHT22;1338;48.176;11.792;2023-08-08T11:08:07;19.40;1.00
2657;DHT22;1338;48.176;11.792;2023-08-08T11:10:38;19.60;1.00
2657;DHT22;1338;48.176;11.792;2023-08-08T11:13:08;19.70;1.00
2657;DHT22;1338;48.176;11.792;2023-08-08T11:15:37;19.80;1.00
2657;DHT22;1338;48.176;11.792;2023-08-08T11:18:06;19.30;1.00
2657;DHT22;1338;48.176;11.792;2023-08-08T11:20:37;19.60;1.00
2657;DHT22;1338;48.176;11.792;2023-08-08T11:23:05;19.80;1.00
2657;DHT22;1338;48.176;11.792;2023-08-08T11:25:40;19.60;1.00
2657;DHT22;1338;48.176;11.792;2023-08-08T11:28:09;19.40;1.00
2657;DHT22;1338;48.176;11.792;2023-08-08T11:30:38;19.70;1.00
2657;DHT22;1338;48.176;11.792;2023-08-08T11:33:07;19.70;1.00
2657;DHT22;1338;48.176;11.792;2023-08-08T11:35:43;19.70;1.00
2657;DHT22;1338;48.176;11.792;2023-08-08T11:38:13;19.50;1.00
2657;DHT22;1338;48.176;11.792;2023-08-08T11:40:42;19.70;1.00
2657;DHT22;1338;48.176;11.792;2023-08-08T11:43:11;19.80;1.00
2657;DHT22;1338;48.176;11.792;2023-08-08T11:45:40;20.40;1.00
2657;DHT22;1338;48.176;11.792;2023-08-08T11:48:10;20.50;1.00
2657;DHT22;1338;48.176;11.792;2023-08-08T11:50:40;20.30;1.00
2657;DHT22;1338;48.176;11.792;2023-08-08T11:53:10;19.70;1.00
2657;DHT22;1338;48.176;11.792;2023-08-08T11:55:39;20.10;1.00
2657;DHT22;1338;48.176;11.792;2023-08-08T11:58:12;20.30;1.00
2657;DHT22;1338;48.176;11.792;2023-08-08T12:00:43;20.50;1.00
2657;DHT22;1338;48.176;11.792;2023-08-08T12:03:12;20.00;1.00
2657;DHT22;1338;48.176;11.792;2023-08-08T12:05:47;20.70;1.00
2657;DHT22;1338;48.176;11.792;2023-08-08T12:08:17;20.40;99.90
2657;DHT22;1338;48.176;11.792;2023-08-08T12:10:49;21.10;99.90
2657;DHT22;1338;48.176;11.792;2023-08-08T12:13:21;21.30;99.90
2657;DHT22;1338;48.176;11.792;2023-08-08T12:15:49;21.20;99.90
2657;DHT22;1338;48.176;11.792;2023-08-08T12:18:19;20.90;99.90
2657;DHT22;1338;48.176;11.792;2023-08-08T12:20:49;21.40;99.90
2657;DHT22;1338;48.176;11.792;2023-08-08T12:23:17;21.70;99.90
2657;DHT22;1338;48.176;11.792;2023-08-08T12:25:46;21.10;99.90
2657;DHT22;1338;48.176;11.792;2023-08-08T12:28:14;20.60;99.90
2657;DHT22;1338;48.176;11.792;2023-08-08T12:30:43;21.50;99.90
2657;DHT22;1338;48.176;11.792;2023-08-08T12:33:11;21.90;99.90
2657;DHT22;1338;48.176;11.792;2023-08-08T12:35:40;21.60;99.90
2657;DHT22;1338;48.176;11.792;2023-08-08T12:38:10;20.70;99.90
2657;DHT22;1338;48.176;11.792;2023-08-08T12:40:38;21.00;99.90
2657;DHT22;1338;48.176;11.792;2023-08-08T12:43:06;20.90;99.90
2657;DHT22;1338;48.176;11.792;2023-08-08T12:45:34;21.30;99.90
2657;DHT22;1338;48.176;11.792;2023-08-08T12:48:03;21.10;99.90
2657;DHT22;1338;48.176;11.792;2023-08-08T12:50:31;21.80;99.90
2657;DHT22;1338;48.176;11.792;2023-08-08T12:52:59;21.70;99.90
2657;DHT22;1338;48.176;11.792;2023-08-08T12:55:29;21.60;99.90
2657;DHT22;1338;48.176;11.792;2023-08-08T12:57:57;22.00;99.90
2657;DHT22;1338;48.176;11.792;2023-08-08T13:00:25;21.90;99.90
2657;DHT22;1338;48.176;11.792;2023-08-08T13:02:54;22.00;99.90
2657;DHT22;1338;48.176;11.792;2023-08-08T13:05:22;22.70;99.90
2657;DHT22;1338;48.176;11.792;2023-08-08T13:07:50;22.50;99.90
2657;DHT22;1338;48.176;11.792;2023-08-08T13:10:19;22.50;99.90
2657;DHT22;1338;48.176;11.792;2023-08-08T13:12:48;21.80;99.90
2657;DHT22;1338;48.176;11.792;2023-08-08T13:15:17;22.30;99.90
2657;DHT22;1338;48.176;11.792;2023-08-08T13:17:46;22.70;99.90
2657;DHT22;1338;48.176;11.792;2023-08-08T13:20:14;22.10;99.90
2657;DHT22;1338;48.176;11.792;2023-08-08T13:22:42;21.10;99.90
2657;DHT22;1338;48.176;11.792;2023-08-08T13:25:11;21.60;99.90
2657;DHT22;1338;48.176;11.792;2023-08-08T13:27:39;21.80;99.90
2657;DHT22;1338;48.176;11.792;2023-08-08T13:30:11;22.00;99.90
2657;DHT22;1338;48.176;11.792;2023-08-08T13:32:42;20.70;99.90
2657;DHT22;1338;48.176;11.792;2023-08-08T13:35:10;21.60;99.90
2657;DHT22;1338;48.176;11.792;2023-08-08T13:37:38;22.00;99.90
2657;DHT22;1338;48.176;11.792;2023-08-08T13:40:07;22.40;99.90
2657;DHT22;1338;48.176;11.792;2023-08-08T13:42:36;23.00;99.90
2657;DHT22;1338;48.176;11.792;2023-08-08T13:45:05;23.20;99.90
2657;DHT22;1338;48.176;11.792;2023-08-08T13:47:35;22.30;99.90
2657;DHT22;1338;48.176;11.792;2023-08-08T13:50:04;22.40;99.90
2657;DHT22;1338;48.176;11.792;2023-08-08T13:52:32;22.00;99.90
2657;DHT22;1338;48.176;11.792;2023-08-08T13:55:00;22.50;99.90
2657;DHT22;1338;48.176;11.792;2023-08-08T13:57:29;22.90;99.90
2657;DHT22;1338;48.176;11.792;2023-08-08T13:59:57;22.70;99.90
2657;DHT22;1338;48.176;11.792;2023-08-08T14:02:25;23.40;99.90
2657;DHT22;1338;48.176;11.792;2023-08-08T14:04:55;22.40;99.90
2657;DHT22;1338;48.176;11.792;2023-08-08T14:07:23;22.90;99.90
2657;DHT22;1338;48.176;11.792;2023-08-08T14:09:52;23.00;99.90
2657;DHT22;1338;48.176;11.792;2023-08-08T14:12:20;22.80;99.90
2657;DHT22;1338;48.176;11.792;2023-08-08T14:14:48;22.70;99.90
2657;DHT22;1338;48.176;11.792;2023-08-08T14:17:17;23.30;99.90
2657;DHT22;1338;48.176;11.792;2023-08-08T14:19:45;23.60;99.90
2657;DHT22;1338;48.176;11.792;2023-08-08T14:22:15;23.60;99.90
2657;DHT22;1338;48.176;11.792;2023-08-08T14:24:43;22.60;99.90
2657;DHT22;1338;48.176;11.792;2023-08-08T14:27:12;23.00;99.90
2657;DHT22;1338;48.176;11.792;2023-08-08T14:29:40;22.50;99.90
2657;DHT22;1338;48.176;11.792;2023-08-08T14:32:08;23.50;99.90
2657;DHT22;1338;48.176;11.792;2023-08-08T14:34:37;22.70;99.90
2657;DHT22;1338;48.176;11.792;2023-08-08T14:37:06;22.70;99.90
2657;DHT22;1338;48.176;11.792;2023-08-08T14:39:37;22.50;99.90
2657;DHT22;1338;48.176;11.792;2023-08-08T14:42:05;22.80;99.90
2657;DHT22;1338;48.176;11.792;2023-08-08T14:44:34;22.90;99.90
2657;DHT22;1338;48.176;11.792;2023-08-08T14:47:02;23.30;99.90
2657;DHT22;1338;48.176;11.792;2023-08-08T14:49:31;23.10;99.90
2657;DHT22;1338;48.176;11.792;2023-08-08T14:51:59;23.50;99.90
2657;DHT22;1338;48.176;11.792;2023-08-08T14:54:28;23.00;99.90
2657;DHT22;1338;48.176;11.792;2023-08-08T14:57:00;23.70;99.90
2657;DHT22;1338;48.176;11.792;2023-08-08T14:59:28;23.10;99.90
2657;DHT22;1338;48.176;11.792;2023-08-08T15:01:57;22.30;99.90
2657;DHT22;1338;48.176;11.792;2023-08-08T15:04:25;22.50;99.90
2657;DHT22;1338;48.176;11.792;2023-08-08T15:06:53;22.60;99.90
2657;DHT22;1338;48.176;11.792;2023-08-08T15:09:22;22.40;99.90
2657;DHT22;1338;48.176;11.792;2023-08-08T15:11:50;21.90;99.90
2657;DHT22;1338;48.176;11.792;2023-08-08T15:14:20;21.70;99.90
2657;DHT22;1338;48.176;11.792;2023-08-08T15:16:49;21.40;99.90
2657;DHT22;1338;48.176;11.792;2023-08-08T15:19:17;22.20;99.90
2657;DHT22;1338;48.176;11.792;2023-08-08T15:21:46;21.80;99.90
2657;DHT22;1338;48.176;11.792;2023-08-08T15:24:14;22.60;99.90
2657;DHT22;1338;48.176;11.792;2023-08-08T15:26:42;23.00;99.90
2657;DHT22;1338;48.176;11.792;2023-08-08T15:29:11;23.30;99.90
2657;DHT22;1338;48.176;11.792;2023-08-08T15:31:40;23.50;99.90
2657;DHT22;1338;48.176;11.792;2023-08-08T15:34:08;23.00;99.90
2657;DHT22;1338;48.176;11.792;2023-08-08T15:36:37;22.40;99.90
2657;DHT22;1338;48.176;11.792;2023-08-08T15:39:05;22.10;99.90
2657;DHT22;1338;48.176;11.792;2023-08-08T15:41:33;21.50;99.90
2657;DHT22;1338;48.176;11.792;2023-08-08T15:44:03;22.00;99.90
2657;DHT22;1338;48.176;11.792;2023-08-08T15:46:31;22.50;99.90
2657;DHT22;1338;48.176;11.792;2023-08-08T15:49:01;22.50;99.90
2657;DHT22;1338;48.176;11.792;2023-08-08T15:51:31;21.60;99.90
2657;DHT22;1338;48.176;11.792;2023-08-08T15:53:59;21.00;99.90
2657;DHT22;1338;48.176;11.792;2023-08-08T15:56:28;21.80;99.90
2657;DHT22;1338;48.176;11.792;2023-08-08T15:58:58;21.80;99.90
2657;DHT22;1338;48.176;11.792;2023-08-08T16:01:26;22.70;99.90
2657;DHT22;1338;48.176;11.792;2023-08-08T16:03:54;21.70;99.90
2657;DHT22;1338;48.176;11.792;2023-08-08T16:06:24;21.20;99.90
2657;DHT22;1338;48.176;11.792;2023-08-08T16:08:52;21.70;99.90